createdAt,value
2022-08-23T00:01:24.293Z,23.10
2022-08-23T00:03:57.105Z,23.10
2022-08-23T00:06:26.824Z,23.10
2022-08-23T00:08:55.690Z,23.10
2022-08-23T00:11:33.141Z,23.10
2022-08-23T00:14:03.555Z,23.10
2022-08-23T00:16:32.246Z,23.10
2022-08-23T00:19:02.803Z,23.10
2022-08-23T00:21:31.619Z,23.10
2022-08-23T00:26:33.084Z,23.10
2022-08-23T00:29:01.404Z,23.00
2022-08-23T00:31:30.009Z,23.00
2022-08-23T00:33:58.704Z,23.00
2022-08-23T00:36:29.088Z,23.00
2022-08-23T00:38:57.617Z,22.90
2022-08-23T00:41:26.133Z,22.90
2022-08-23T00:44:13.749Z,22.90
2022-08-23T00:47:04.888Z,22.70
2022-08-23T00:49:34.782Z,22.70
2022-08-23T00:52:09.842Z,22.60
2022-08-23T00:54:41.339Z,22.50
2022-08-23T00:57:14.356Z,22.50
2022-08-23T00:59:44.230Z,22.40
2022-08-23T01:02:13.289Z,22.40
2022-08-23T01:04:45.491Z,22.40
2022-08-23T01:07:22.713Z,22.30
2022-08-23T01:09:55.286Z,22.30
2022-08-23T01:12:32.657Z,22.40
2022-08-23T01:15:05.233Z,22.40
2022-08-23T01:17:42.151Z,22.40
2022-08-23T01:20:16.774Z,22.40
2022-08-23T01:22:54.308Z,22.40
2022-08-23T01:25:25.930Z,22.40
2022-08-23T01:27:54.244Z,22.40
2022-08-23T01:30:26.273Z,22.40
2022-08-23T01:32:58.190Z,22.50
2022-08-23T01:35:35.132Z,22.40
2022-08-23T01:38:03.512Z,22.50
2022-08-23T01:40:34.246Z,22.50
2022-08-23T01:43:03.238Z,22.50
2022-08-23T01:45:32.557Z,22.50
2022-08-23T01:48:04.666Z,22.50
2022-08-23T01:53:03.941Z,22.40
2022-08-23T01:55:34.686Z,22.40
2022-08-23T01:58:06.543Z,22.40
2022-08-23T02:00:37.842Z,22.40
2022-08-23T02:03:07.378Z,22.40
2022-08-23T02:05:38.315Z,22.40
2022-08-23T02:08:21.888Z,22.30
2022-08-23T02:10:52.961Z,22.30
2022-08-23T02:13:21.575Z,22.30
2022-08-23T02:15:51.428Z,22.20
2022-08-23T02:18:21.429Z,22.10
2022-08-23T02:20:51.481Z,22.10
2022-08-23T02:23:21.009Z,22.10
2022-08-23T02:25:50.350Z,22.10
2022-08-23T02:28:22.659Z,22.10
2022-08-23T02:30:54.101Z,22.20
2022-08-23T02:33:22.508Z,22.20
2022-08-23T02:35:51.353Z,22.10
2022-08-23T02:38:21.263Z,22.10
2022-08-23T02:40:52.822Z,22.00
2022-08-23T02:43:30.931Z,21.90
2022-08-23T02:45:59.823Z,21.90
2022-08-23T02:48:54.399Z,21.80
2022-08-23T02:51:22.895Z,21.80
2022-08-23T02:53:52.242Z,21.80
2022-08-23T02:56:22.008Z,21.80
2022-08-23T02:58:53.971Z,21.80
2022-08-23T03:01:27.480Z,21.80
2022-08-23T03:03:56.669Z,21.60
2022-08-23T03:06:26.598Z,21.50
2022-08-23T03:08:55.727Z,21.30
2022-08-23T03:11:25.404Z,21.20
2022-08-23T03:13:57.340Z,21.20
2022-08-23T03:16:26.973Z,21.10
2022-08-23T03:18:56.216Z,19.60
2022-08-23T03:21:25.116Z,21.10
2022-08-23T03:23:53.828Z,21.00
2022-08-23T03:26:24.660Z,20.90
2022-08-23T03:28:56.751Z,20.90
2022-08-23T03:31:25.406Z,20.80
2022-08-23T03:33:57.644Z,20.70
2022-08-23T03:36:28.445Z,20.70
2022-08-23T03:39:00.057Z,20.60
2022-08-23T03:41:30.495Z,20.60
2022-08-23T03:44:00.310Z,20.50
2022-08-23T03:46:33.355Z,20.50
2022-08-23T03:49:03.698Z,20.50
2022-08-23T03:51:33.626Z,20.60
2022-08-23T03:54:02.962Z,20.60
2022-08-23T03:56:34.446Z,20.60
2022-08-23T03:59:11.045Z,20.60
2022-08-23T04:01:39.598Z,20.60
2022-08-23T04:04:08.350Z,20.60
2022-08-23T04:06:37.417Z,20.50
2022-08-23T04:09:05.945Z,20.50
2022-08-23T04:11:34.685Z,20.40
2022-08-23T04:19:08.662Z,20.10
2022-08-23T04:21:39.385Z,20.20
2022-08-23T04:24:09.398Z,20.20
2022-08-23T04:26:37.873Z,20.20
2022-08-23T04:29:08.519Z,20.20
2022-08-23T04:31:38.922Z,20.20
2022-08-23T04:34:09.542Z,20.20
2022-08-23T04:36:40.950Z,20.20
2022-08-23T04:39:14.315Z,20.20
2022-08-23T04:41:59.994Z,20.30
2022-08-23T04:44:30.104Z,20.40
2022-08-23T04:46:58.802Z,20.50
2022-08-23T04:49:27.250Z,20.50
2022-08-23T04:51:56.169Z,20.50
2022-08-23T04:54:24.922Z,20.60
2022-08-23T04:56:53.276Z,20.70
2022-08-23T04:59:24.007Z,20.70
2022-08-23T05:04:22.694Z,20.90
2022-08-23T05:06:52.252Z,20.90
2022-08-23T05:11:50.571Z,21.00
2022-08-23T05:14:20.983Z,21.00
2022-08-23T05:16:49.713Z,21.10
2022-08-23T05:19:19.597Z,21.10
2022-08-23T05:21:47.884Z,21.10
2022-08-23T05:24:16.144Z,21.00
2022-08-23T05:26:44.738Z,21.00
2022-08-23T05:29:12.933Z,21.10
2022-08-23T05:31:43.774Z,21.00
2022-08-23T05:34:17.605Z,20.90
2022-08-23T05:36:55.197Z,20.90
2022-08-23T05:39:30.363Z,20.90
2022-08-23T05:42:04.742Z,20.90
2022-08-23T05:44:34.523Z,20.90
2022-08-23T05:47:11.265Z,21.00
2022-08-23T05:49:42.754Z,21.10
2022-08-23T05:52:14.437Z,21.10
2022-08-23T05:59:50.314Z,21.40
2022-08-23T06:02:21.329Z,21.40
2022-08-23T06:04:57.594Z,21.40
2022-08-23T06:10:30.555Z,21.70
2022-08-23T06:12:59.769Z,21.70
2022-08-23T06:15:28.788Z,21.70
2022-08-23T06:22:06.181Z,20.00
2022-08-23T06:28:06.093Z,21.80
2022-08-23T06:30:59.565Z,19.50
2022-08-23T06:33:42.443Z,22.00
2022-08-23T06:48:20.480Z,19.80
2022-08-23T07:01:52.680Z,23.10
2022-08-23T07:04:26.381Z,24.90
2022-08-23T07:06:58.972Z,26.70
2022-08-23T07:21:06.110Z,27.90
2022-08-23T07:23:37.757Z,30.50
2022-08-23T07:26:13.419Z,30.90
2022-08-23T07:29:06.843Z,31.20
2022-08-23T08:04:33.487Z,29.60
2022-08-23T08:07:22.331Z,29.50
2022-08-23T08:21:08.111Z,29.30
2022-08-23T08:24:17.489Z,30.10
2022-08-23T08:30:40.229Z,28.60
2022-08-23T08:33:10.714Z,29.90
2022-08-23T08:35:42.996Z,30.10
2022-08-23T08:38:23.450Z,30.30
2022-08-23T08:48:29.752Z,28.40
2022-08-23T08:52:23.532Z,29.80
2022-08-23T08:54:57.809Z,28.60
2022-08-23T08:57:46.654Z,30.30
2022-08-23T09:00:20.451Z,30.50
2022-08-23T09:02:50.414Z,30.50
2022-08-23T09:05:31.547Z,30.70
2022-08-23T09:08:18.431Z,30.40
2022-08-23T09:10:54.375Z,30.30
2022-08-23T09:14:02.311Z,30.50
2022-08-23T09:16:40.827Z,30.60
2022-08-23T09:19:09.907Z,30.60
2022-08-23T09:21:45.972Z,30.60
2022-08-23T09:24:15.040Z,30.40
2022-08-23T09:26:45.509Z,30.20
2022-08-23T09:29:21.169Z,30.50
2022-08-23T09:31:58.215Z,30.50
2022-08-23T09:34:42.219Z,29.70
2022-08-23T09:37:20.836Z,30.40
2022-08-23T09:42:38.399Z,30.40
2022-08-23T09:45:09.350Z,30.70
2022-08-23T09:47:47.754Z,30.80
2022-08-23T09:50:43.459Z,30.50
2022-08-23T09:53:29.722Z,30.40
2022-08-23T09:56:01.489Z,30.60
2022-08-23T09:58:39.240Z,30.50
2022-08-23T10:01:16.240Z,30.60
2022-08-23T10:03:51.981Z,30.80
2022-08-23T10:06:34.184Z,30.80
2022-08-23T10:09:06.425Z,30.70
2022-08-23T10:11:39.741Z,30.80
2022-08-23T10:14:09.448Z,30.80
2022-08-23T10:16:42.885Z,30.70
2022-08-23T10:19:19.042Z,30.70
2022-08-23T10:21:57.353Z,30.70
2022-08-23T10:24:40.837Z,30.90
2022-08-23T10:27:37.471Z,30.90
2022-08-23T10:30:13.225Z,31.00
2022-08-23T10:32:52.526Z,31.10
2022-08-23T10:35:31.179Z,31.40
2022-08-23T10:38:36.049Z,31.40
2022-08-23T10:41:23.078Z,31.40
2022-08-23T10:44:02.839Z,31.40
2022-08-23T10:46:38.452Z,31.20
2022-08-23T10:49:08.250Z,31.20
2022-08-23T10:51:40.944Z,31.20
2022-08-23T10:57:04.399Z,31.10
2022-08-23T11:03:29.047Z,31.30
2022-08-23T11:06:44.757Z,31.20
2022-08-23T11:09:40.512Z,31.40
2022-08-23T11:12:20.240Z,31.50
2022-08-23T11:14:59.925Z,31.50
2022-08-23T11:17:53.741Z,31.50
2022-08-23T11:20:55.965Z,31.40
2022-08-23T11:23:52.595Z,31.50
2022-08-23T11:27:07.532Z,31.60
2022-08-23T11:29:43.479Z,31.90
2022-08-23T11:32:44.070Z,31.90
2022-08-23T11:35:43.008Z,31.90
2022-08-23T11:38:13.584Z,31.90
2022-08-23T11:41:00.132Z,31.80
2022-08-23T11:43:32.996Z,31.80
2022-08-23T11:46:53.847Z,31.80
2022-08-23T11:49:52.105Z,31.70
2022-08-23T11:52:36.359Z,31.60
2022-08-23T11:55:39.595Z,31.50
2022-08-23T11:58:23.541Z,31.30
2022-08-23T12:01:06.387Z,31.10
2022-08-23T12:03:45.883Z,30.90
2022-08-23T12:06:50.724Z,30.90
2022-08-23T12:09:56.787Z,30.90
2022-08-23T12:48:02.151Z,28.50
2022-08-23T12:49:59.691Z,27.50
2022-08-23T12:52:30.606Z,30.10
2022-08-23T12:54:59.453Z,30.10
2022-08-23T12:57:38.918Z,30.20
2022-08-23T13:00:19.396Z,30.30
2022-08-23T13:02:55.087Z,30.20
2022-08-23T13:05:35.103Z,30.20
2022-08-23T13:08:07.853Z,30.20
2022-08-23T13:10:38.812Z,30.20
2022-08-23T13:13:09.347Z,30.20
2022-08-23T13:15:45.409Z,30.10
2022-08-23T13:18:32.227Z,30.10
2022-08-23T13:21:25.754Z,30.10
2022-08-23T13:23:56.244Z,30.00
2022-08-23T13:26:27.688Z,29.90
2022-08-23T13:29:12.607Z,29.90
2022-08-23T13:31:52.529Z,29.80
2022-08-23T13:34:47.042Z,29.70
2022-08-23T13:37:29.026Z,29.60
2022-08-23T13:40:06.054Z,29.70
2022-08-23T13:47:12.972Z,28.90
2022-08-23T13:49:41.447Z,27.10
2022-08-23T13:52:46.002Z,29.50
2022-08-23T13:55:26.519Z,29.40
2022-08-23T13:57:57.778Z,29.30
2022-08-23T14:00:26.853Z,29.20
2022-08-23T14:05:38.960Z,29.20
2022-08-23T14:08:09.893Z,29.30
2022-08-23T14:10:40.012Z,29.30
2022-08-23T14:13:14.428Z,29.40
2022-08-23T14:18:36.552Z,29.70
2022-08-23T14:21:06.736Z,29.70
2022-08-23T14:23:35.580Z,29.60
2022-08-23T14:26:05.581Z,29.50
2022-08-23T14:28:34.841Z,29.40
2022-08-23T14:31:02.989Z,29.30
2022-08-23T14:33:33.910Z,29.40
2022-08-23T14:36:02.575Z,29.50
2022-08-23T14:38:30.860Z,29.60
2022-08-23T14:41:03.341Z,29.60
2022-08-23T14:43:33.248Z,29.70
2022-08-23T14:46:02.867Z,29.70
2022-08-23T14:48:31.230Z,29.70
2022-08-23T15:29:20.916Z,27.00
2022-08-23T15:31:50.306Z,26.10
2022-08-23T15:58:13.642Z,28.60
2022-08-23T16:05:41.990Z,27.30
2022-08-23T16:08:41.909Z,28.00
2022-08-23T16:11:13.021Z,31.90
2022-08-23T16:24:47.609Z,26.70
2022-08-23T16:35:16.056Z,29.30
2022-08-23T17:13:02.115Z,27.40
2022-08-23T17:16:08.117Z,27.80
2022-08-23T17:18:36.435Z,27.10
2022-08-23T17:21:05.412Z,28.90
2022-08-23T17:23:53.922Z,28.90
2022-08-23T17:33:45.704Z,28.80
2022-08-23T19:19:44.398Z,25.80
2022-08-23T20:39:55.242Z,25.90
2022-08-23T20:42:23.694Z,25.90
2022-08-23T20:44:52.095Z,26.10
2022-08-23T20:49:49.107Z,26.00
2022-08-23T20:52:18.694Z,26.00
2022-08-23T20:57:17.238Z,25.90
2022-08-23T21:02:14.441Z,25.70
2022-08-23T21:14:42.448Z,25.20
2022-08-23T21:17:10.829Z,25.20
2022-08-23T21:19:39.511Z,25.20
2022-08-23T21:22:07.866Z,25.30
2022-08-23T21:29:40.406Z,25.40
2022-08-23T21:34:37.791Z,25.50
2022-08-23T21:37:07.895Z,25.50
2022-08-23T21:39:36.342Z,25.50
2022-08-23T21:42:15.076Z,23.40
2022-08-23T21:45:23.315Z,25.50
2022-08-23T21:47:52.295Z,25.40
2022-08-23T21:50:28.565Z,25.40
2022-08-23T21:53:11.327Z,25.40
2022-08-23T21:55:41.600Z,25.40
2022-08-23T21:58:11.377Z,25.40
2022-08-23T22:00:46.523Z,22.40
2022-08-23T22:08:41.931Z,25.30
2022-08-23T22:11:16.069Z,25.30
2022-08-23T22:14:05.254Z,25.30
2022-08-23T22:16:37.705Z,25.40
2022-08-23T22:21:39.987Z,25.10
2022-08-23T22:24:10.700Z,24.90
2022-08-23T22:31:44.112Z,20.50
2022-08-23T22:48:21.868Z,24.60
2022-08-23T22:53:51.436Z,24.70
2022-08-23T22:56:23.099Z,24.60
2022-08-23T22:59:27.628Z,24.60
2022-08-23T23:02:02.551Z,26.20
2022-08-23T23:04:37.542Z,24.50
2022-08-23T23:09:38.801Z,24.50
2022-08-23T23:20:01.831Z,24.50
2022-08-23T23:22:32.130Z,24.50
2022-08-23T23:25:07.138Z,24.40
2022-08-23T23:27:37.619Z,24.40
2022-08-23T23:30:08.923Z,24.70
2022-08-23T23:58:04.670Z,23.90
